sensor_id;sensor_type;location;lat;lon;timestamp;temperature;humidity
40454;DHT22;26160;51.858;4.398;2023-03-31T00:01:48;11.40;99.90
40454;DHT22;26160;51.858;4.398;2023-03-31T00:04:18;11.40;99.90
40454;DHT22;26160;51.858;4.398;2023-03-31T00:06:48;11.50;99.90
40454;DHT22;26160;51.858;4.398;2023-03-31T00:09:15;11.60;99.90
40454;DHT22;26160;51.858;4.398;2023-03-31T00:11:50;11.60;99.90
40454;DHT22;26160;51.858;4.398;2023-03-31T00:14:19;11.60;99.90
40454;DHT22;26160;51.858;4.398;2023-03-31T00:16:46;11.50;99.90
40454;DHT22;26160;51.858;4.398;2023-03-31T00:19:13;11.50;99.90
40454;DHT22;26160;51.858;4.398;2023-03-31T00:21:47;11.50;99.90
40454;DHT22;26160;51.858;4.398;2023-03-31T00:24:14;11.50;99.90
40454;DHT22;26160;51.858;4.398;2023-03-31T00:26:41;11.50;99.90
40454;DHT22;26160;51.858;4.398;2023-03-31T00:29:08;11.60;99.90
40454;DHT22;26160;51.858;4.398;2023-03-31T00:31:35;11.70;99.90
40454;DHT22;26160;51.858;4.398;2023-03-31T00:34:01;11.70;99.90
40454;DHT22;26160;51.858;4.398;2023-03-31T00:36:27;11.70;99.90
40454;DHT22;26160;51.858;4.398;2023-03-31T00:39:04;11.80;99.90
40454;DHT22;26160;51.858;4.398;2023-03-31T00:41:35;11.80;99.90
40454;DHT22;26160;51.858;4.398;2023-03-31T00:44:11;11.90;99.90
40454;DHT22;26160;51.858;4.398;2023-03-31T00:49:18;11.90;99.90
40454;DHT22;26160;51.858;4.398;2023-03-31T00:51:47;12.00;99.90
40454;DHT22;26160;51.858;4.398;2023-03-31T00:54:16;12.00;99.90
40454;DHT22;26160;51.858;4.398;2023-03-31T00:56:46;12.00;99.90
40454;DHT22;26160;51.858;4.398;2023-03-31T00:59:13;12.00;99.90
40454;DHT22;26160;51.858;4.398;2023-03-31T01:01:45;11.90;99.90
40454;DHT22;26160;51.858;4.398;2023-03-31T01:04:13;11.80;99.90
40454;DHT22;26160;51.858;4.398;2023-03-31T01:07:12;11.70;99.90
40454;DHT22;26160;51.858;4.398;2023-03-31T01:09:44;11.60;99.90
40454;DHT22;26160;51.858;4.398;2023-03-31T01:12:13;11.50;99.90
40454;DHT22;26160;51.858;4.398;2023-03-31T01:14:40;11.50;99.90
40454;DHT22;26160;51.858;4.398;2023-03-31T01:17:07;11.40;99.90
40454;DHT22;26160;51.858;4.398;2023-03-31T01:26:00;11.30;99.90
40454;DHT22;26160;51.858;4.398;2023-03-31T01:47:26;11.10;99.90
40454;DHT22;26160;51.858;4.398;2023-03-31T01:55:25;11.10;99.90
40454;DHT22;26160;51.858;4.398;2023-03-31T02:00:33;11.00;99.90
40454;DHT22;26160;51.858;4.398;2023-03-31T02:03:10;11.00;99.90
40454;DHT22;26160;51.858;4.398;2023-03-31T02:05:52;11.00;99.90
40454;DHT22;26160;51.858;4.398;2023-03-31T02:08:29;11.00;99.90
40454;DHT22;26160;51.858;4.398;2023-03-31T02:10:57;11.00;99.90
40454;DHT22;26160;51.858;4.398;2023-03-31T02:13:26;11.00;99.90
40454;DHT22;26160;51.858;4.398;2023-03-31T02:15:56;11.00;99.90
40454;DHT22;26160;51.858;4.398;2023-03-31T02:18:27;10.90;99.90
40454;DHT22;26160;51.858;4.398;2023-03-31T02:20:56;10.90;99.90
40454;DHT22;26160;51.858;4.398;2023-03-31T02:23:26;11.00;99.90
40454;DHT22;26160;51.858;4.398;2023-03-31T02:26:09;10.90;99.90
40454;DHT22;26160;51.858;4.398;2023-03-31T02:28:36;10.90;99.90
40454;DHT22;26160;51.858;4.398;2023-03-31T02:33:46;10.80;99.90
40454;DHT22;26160;51.858;4.398;2023-03-31T02:36:12;10.80;99.90
40454;DHT22;26160;51.858;4.398;2023-03-31T02:38:51;10.80;99.90
40454;DHT22;26160;51.858;4.398;2023-03-31T02:41:18;10.80;99.90
40454;DHT22;26160;51.858;4.398;2023-03-31T02:43:44;10.80;99.90
40454;DHT22;26160;51.858;4.398;2023-03-31T02:46:10;10.70;99.90
40454;DHT22;26160;51.858;4.398;2023-03-31T02:48:39;10.70;99.90
40454;DHT22;26160;51.858;4.398;2023-03-31T02:59:23;10.50;99.90
40454;DHT22;26160;51.858;4.398;2023-03-31T03:02:07;10.50;99.90
40454;DHT22;26160;51.858;4.398;2023-03-31T03:04:50;10.40;99.90
40454;DHT22;26160;51.858;4.398;2023-03-31T03:07:24;10.40;99.90
40454;DHT22;26160;51.858;4.398;2023-03-31T03:10:09;10.40;99.90
40454;DHT22;26160;51.858;4.398;2023-03-31T03:15:29;10.40;99.90
40454;DHT22;26160;51.858;4.398;2023-03-31T03:17:57;10.40;99.90
40454;DHT22;26160;51.858;4.398;2023-03-31T03:20:24;10.40;99.90
40454;DHT22;26160;51.858;4.398;2023-03-31T03:22:50;10.40;99.90
40454;DHT22;26160;51.858;4.398;2023-03-31T03:25:17;10.40;99.90
40454;DHT22;26160;51.858;4.398;2023-03-31T03:27:45;10.30;99.90
40454;DHT22;26160;51.858;4.398;2023-03-31T03:30:12;10.40;99.90
40454;DHT22;26160;51.858;4.398;2023-03-31T03:32:39;10.40;99.90
40454;DHT22;26160;51.858;4.398;2023-03-31T03:35:06;10.40;99.90
40454;DHT22;26160;51.858;4.398;2023-03-31T03:37:33;10.50;99.90
40454;DHT22;26160;51.858;4.398;2023-03-31T03:39:59;10.50;99.90
40454;DHT22;26160;51.858;4.398;2023-03-31T03:42:25;10.50;99.90
40454;DHT22;26160;51.858;4.398;2023-03-31T03:44:51;10.50;99.90
40454;DHT22;26160;51.858;4.398;2023-03-31T03:47:17;10.50;99.90
40454;DHT22;26160;51.858;4.398;2023-03-31T03:49:43;10.50;99.90
40454;DHT22;26160;51.858;4.398;2023-03-31T03:52:09;10.50;99.90
40454;DHT22;26160;51.858;4.398;2023-03-31T03:54:36;10.60;99.90
40454;DHT22;26160;51.858;4.398;2023-03-31T03:57:02;10.60;99.90
40454;DHT22;26160;51.858;4.398;2023-03-31T03:59:28;10.60;99.90
40454;DHT22;26160;51.858;4.398;2023-03-31T04:01:54;10.60;99.90
40454;DHT22;26160;51.858;4.398;2023-03-31T04:04:20;10.60;99.90
40454;DHT22;26160;51.858;4.398;2023-03-31T04:06:46;10.60;99.90
40454;DHT22;26160;51.858;4.398;2023-03-31T04:09:12;10.60;99.90
40454;DHT22;26160;51.858;4.398;2023-03-31T04:11:38;10.60;99.90
40454;DHT22;26160;51.858;4.398;2023-03-31T04:14:04;10.60;99.90
40454;DHT22;26160;51.858;4.398;2023-03-31T04:16:30;10.60;99.90
40454;DHT22;26160;51.858;4.398;2023-03-31T04:18:59;10.60;99.90
40454;DHT22;26160;51.858;4.398;2023-03-31T04:21:29;10.60;99.90
40454;DHT22;26160;51.858;4.398;2023-03-31T04:24:00;10.60;99.90
40454;DHT22;26160;51.858;4.398;2023-03-31T04:26:31;10.60;99.90
40454;DHT22;26160;51.858;4.398;2023-03-31T04:29:09;10.70;99.90
40454;DHT22;26160;51.858;4.398;2023-03-31T04:31:35;10.70;99.90
40454;DHT22;26160;51.858;4.398;2023-03-31T04:34:04;10.70;99.90
40454;DHT22;26160;51.858;4.398;2023-03-31T04:36:32;10.70;99.90
40454;DHT22;26160;51.858;4.398;2023-03-31T04:38:59;10.70;99.90
40454;DHT22;26160;51.858;4.398;2023-03-31T04:41:26;10.60;99.90
40454;DHT22;26160;51.858;4.398;2023-03-31T04:43:53;10.60;99.90
40454;DHT22;26160;51.858;4.398;2023-03-31T04:46:19;10.70;99.90
40454;DHT22;26160;51.858;4.398;2023-03-31T04:48:45;10.60;99.90
40454;DHT22;26160;51.858;4.398;2023-03-31T04:51:11;10.60;99.90
40454;DHT22;26160;51.858;4.398;2023-03-31T04:53:40;10.60;99.90
40454;DHT22;26160;51.858;4.398;2023-03-31T04:56:06;10.60;99.90
40454;DHT22;26160;51.858;4.398;2023-03-31T04:58:32;10.60;99.90
40454;DHT22;26160;51.858;4.398;2023-03-31T05:00:59;10.60;99.90
40454;DHT22;26160;51.858;4.398;2023-03-31T05:03:25;10.60;99.90
40454;DHT22;26160;51.858;4.398;2023-03-31T05:05:51;10.60;99.90
40454;DHT22;26160;51.858;4.398;2023-03-31T05:08:17;10.60;99.90
40454;DHT22;26160;51.858;4.398;2023-03-31T05:10:43;10.60;99.90
40454;DHT22;26160;51.858;4.398;2023-03-31T05:13:09;10.60;99.90
40454;DHT22;26160;51.858;4.398;2023-03-31T05:15:39;10.60;99.90
40454;DHT22;26160;51.858;4.398;2023-03-31T05:18:06;10.60;99.90
40454;DHT22;26160;51.858;4.398;2023-03-31T05:20:32;10.60;99.90
40454;DHT22;26160;51.858;4.398;2023-03-31T05:22:59;10.60;99.90
40454;DHT22;26160;51.858;4.398;2023-03-31T05:25:25;10.60;99.90
40454;DHT22;26160;51.858;4.398;2023-03-31T05:27:54;10.60;99.90
40454;DHT22;26160;51.858;4.398;2023-03-31T05:30:21;10.60;99.90
40454;DHT22;26160;51.858;4.398;2023-03-31T05:32:47;10.60;99.90
40454;DHT22;26160;51.858;4.398;2023-03-31T05:35:13;10.50;99.90
40454;DHT22;26160;51.858;4.398;2023-03-31T05:37:39;10.50;99.90
40454;DHT22;26160;51.858;4.398;2023-03-31T05:40:06;10.50;99.90
40454;DHT22;26160;51.858;4.398;2023-03-31T05:42:34;10.40;99.90
40454;DHT22;26160;51.858;4.398;2023-03-31T05:45:01;10.40;99.90
40454;DHT22;26160;51.858;4.398;2023-03-31T05:47:27;10.40;99.90
40454;DHT22;26160;51.858;4.398;2023-03-31T05:49:53;10.40;99.90
40454;DHT22;26160;51.858;4.398;2023-03-31T05:52:19;10.30;99.90
40454;DHT22;26160;51.858;4.398;2023-03-31T05:54:45;10.30;99.90
40454;DHT22;26160;51.858;4.398;2023-03-31T05:57:11;10.20;99.90
40454;DHT22;26160;51.858;4.398;2023-03-31T05:59:38;10.20;99.90
40454;DHT22;26160;51.858;4.398;2023-03-31T06:02:05;10.20;99.90
40454;DHT22;26160;51.858;4.398;2023-03-31T06:04:32;10.20;99.90
40454;DHT22;26160;51.858;4.398;2023-03-31T06:06:58;10.20;99.90
40454;DHT22;26160;51.858;4.398;2023-03-31T06:09:25;10.20;99.90
40454;DHT22;26160;51.858;4.398;2023-03-31T06:11:51;10.20;99.90
40454;DHT22;26160;51.858;4.398;2023-03-31T06:14:17;10.20;99.90
40454;DHT22;26160;51.858;4.398;2023-03-31T06:16:43;10.20;99.90
40454;DHT22;26160;51.858;4.398;2023-03-31T06:19:12;10.20;99.90
40454;DHT22;26160;51.858;4.398;2023-03-31T06:21:38;10.30;99.90
40454;DHT22;26160;51.858;4.398;2023-03-31T06:24:04;10.30;99.90
40454;DHT22;26160;51.858;4.398;2023-03-31T06:26:31;10.30;99.90
40454;DHT22;26160;51.858;4.398;2023-03-31T06:28:57;10.30;99.90
40454;DHT22;26160;51.858;4.398;2023-03-31T06:31:24;10.30;99.90
40454;DHT22;26160;51.858;4.398;2023-03-31T06:33:50;10.30;99.90
40454;DHT22;26160;51.858;4.398;2023-03-31T06:36:19;10.30;99.90
40454;DHT22;26160;51.858;4.398;2023-03-31T06:38:46;10.40;99.90
40454;DHT22;26160;51.858;4.398;2023-03-31T06:41:14;10.40;99.90
40454;DHT22;26160;51.858;4.398;2023-03-31T06:43:40;10.40;99.90
40454;DHT22;26160;51.858;4.398;2023-03-31T06:46:07;10.40;99.90
40454;DHT22;26160;51.858;4.398;2023-03-31T06:48:34;10.50;99.90
40454;DHT22;26160;51.858;4.398;2023-03-31T06:51:02;10.50;99.90
40454;DHT22;26160;51.858;4.398;2023-03-31T06:53:28;10.60;99.90
40454;DHT22;26160;51.858;4.398;2023-03-31T06:55:54;10.60;99.90
40454;DHT22;26160;51.858;4.398;2023-03-31T06:58:21;10.60;99.90
40454;DHT22;26160;51.858;4.398;2023-03-31T07:00:47;10.70;99.90
40454;DHT22;26160;51.858;4.398;2023-03-31T07:03:14;10.70;99.90
40454;DHT22;26160;51.858;4.398;2023-03-31T07:05:50;10.70;99.90
40454;DHT22;26160;51.858;4.398;2023-03-31T07:08:19;10.70;99.90
40454;DHT22;26160;51.858;4.398;2023-03-31T07:10:47;10.80;99.90
40454;DHT22;26160;51.858;4.398;2023-03-31T07:13:15;10.80;99.90
40454;DHT22;26160;51.858;4.398;2023-03-31T07:15:41;10.90;99.90
40454;DHT22;26160;51.858;4.398;2023-03-31T07:18:08;10.90;99.90
40454;DHT22;26160;51.858;4.398;2023-03-31T07:20:34;11.00;99.90
40454;DHT22;26160;51.858;4.398;2023-03-31T07:23:03;11.00;99.90
40454;DHT22;26160;51.858;4.398;2023-03-31T07:25:30;11.00;99.90
40454;DHT22;26160;51.858;4.398;2023-03-31T07:27:56;11.00;99.90
40454;DHT22;26160;51.858;4.398;2023-03-31T07:30:22;11.00;99.90
40454;DHT22;26160;51.858;4.398;2023-03-31T07:32:50;11.00;99.90
40454;DHT22;26160;51.858;4.398;2023-03-31T07:35:17;11.00;99.90
40454;DHT22;26160;51.858;4.398;2023-03-31T07:37:45;11.00;99.90
40454;DHT22;26160;51.858;4.398;2023-03-31T07:40:20;11.00;99.90
40454;DHT22;26160;51.858;4.398;2023-03-31T07:42:47;11.00;99.90
40454;DHT22;26160;51.858;4.398;2023-03-31T07:45:15;11.00;99.90
40454;DHT22;26160;51.858;4.398;2023-03-31T07:47:42;11.00;99.90
40454;DHT22;26160;51.858;4.398;2023-03-31T07:50:09;11.00;99.90
40454;DHT22;26160;51.858;4.398;2023-03-31T07:52:36;11.00;99.90
40454;DHT22;26160;51.858;4.398;2023-03-31T07:55:02;11.00;99.90
40454;DHT22;26160;51.858;4.398;2023-03-31T07:57:29;11.00;99.90
40454;DHT22;26160;51.858;4.398;2023-03-31T07:59:55;11.10;99.90
40454;DHT22;26160;51.858;4.398;2023-03-31T08:02:21;11.00;99.90
40454;DHT22;26160;51.858;4.398;2023-03-31T08:04:47;11.10;99.90
40454;DHT22;26160;51.858;4.398;2023-03-31T08:07:14;11.10;99.90
40454;DHT22;26160;51.858;4.398;2023-03-31T08:09:44;11.20;99.90
40454;DHT22;26160;51.858;4.398;2023-03-31T08:12:11;11.20;99.90
40454;DHT22;26160;51.858;4.398;2023-03-31T08:14:39;11.20;99.90
40454;DHT22;26160;51.858;4.398;2023-03-31T08:17:05;11.20;99.90
40454;DHT22;26160;51.858;4.398;2023-03-31T08:19:32;11.30;99.90
40454;DHT22;26160;51.858;4.398;2023-03-31T08:21:59;11.40;99.90
40454;DHT22;26160;51.858;4.398;2023-03-31T08:24:25;11.50;99.90
40454;DHT22;26160;51.858;4.398;2023-03-31T08:26:52;11.60;99.90
40454;DHT22;26160;51.858;4.398;2023-03-31T08:29:18;11.70;99.90
40454;DHT22;26160;51.858;4.398;2023-03-31T08:31:44;11.80;99.90
40454;DHT22;26160;51.858;4.398;2023-03-31T08:34:10;11.90;99.90
40454;DHT22;26160;51.858;4.398;2023-03-31T08:36:36;12.00;99.90
40454;DHT22;26160;51.858;4.398;2023-03-31T08:39:02;12.10;99.90
40454;DHT22;26160;51.858;4.398;2023-03-31T08:41:56;12.10;99.90
40454;DHT22;26160;51.858;4.398;2023-03-31T08:46:58;12.30;99.90
40454;DHT22;26160;51.858;4.398;2023-03-31T08:49:30;12.30;99.90
40454;DHT22;26160;51.858;4.398;2023-03-31T08:52:04;12.40;99.90
40454;DHT22;26160;51.858;4.398;2023-03-31T08:54:32;12.50;99.90
40454;DHT22;26160;51.858;4.398;2023-03-31T08:56:59;12.50;99.90
40454;DHT22;26160;51.858;4.398;2023-03-31T08:59:33;12.50;99.90
40454;DHT22;26160;51.858;4.398;2023-03-31T09:09:52;12.20;99.90
40454;DHT22;26160;51.858;4.398;2023-03-31T09:17:29;12.20;99.90
40454;DHT22;26160;51.858;4.398;2023-03-31T09:20:04;12.30;99.90
40454;DHT22;26160;51.858;4.398;2023-03-31T09:22:40;12.30;99.90
40454;DHT22;26160;51.858;4.398;2023-03-31T09:25:22;12.30;99.90
40454;DHT22;26160;51.858;4.398;2023-03-31T09:27:53;12.30;99.90
40454;DHT22;26160;51.858;4.398;2023-03-31T09:30:21;12.30;99.90
40454;DHT22;26160;51.858;4.398;2023-03-31T09:35:36;12.30;99.90
40454;DHT22;26160;51.858;4.398;2023-03-31T09:38:02;12.30;99.90
40454;DHT22;26160;51.858;4.398;2023-03-31T09:40:28;12.20;99.90
40454;DHT22;26160;51.858;4.398;2023-03-31T09:43:20;12.20;99.90
40454;DHT22;26160;51.858;4.398;2023-03-31T09:45:47;12.20;99.90
40454;DHT22;26160;51.858;4.398;2023-03-31T09:48:17;12.20;99.90
40454;DHT22;26160;51.858;4.398;2023-03-31T09:51:05;12.10;99.90
40454;DHT22;26160;51.858;4.398;2023-03-31T09:56:07;12.00;99.90
40454;DHT22;26160;51.858;4.398;2023-03-31T09:58:45;12.00;99.90
40454;DHT22;26160;51.858;4.398;2023-03-31T10:01:14;12.00;99.90
40454;DHT22;26160;51.858;4.398;2023-03-31T10:03:58;11.90;99.90
40454;DHT22;26160;51.858;4.398;2023-03-31T10:06:24;11.80;99.90
40454;DHT22;26160;51.858;4.398;2023-03-31T10:09:00;11.80;99.90
40454;DHT22;26160;51.858;4.398;2023-03-31T10:11:27;11.80;99.90
40454;DHT22;26160;51.858;4.398;2023-03-31T10:14:12;11.80;99.90
40454;DHT22;26160;51.858;4.398;2023-03-31T10:19:27;11.80;99.90
40454;DHT22;26160;51.858;4.398;2023-03-31T10:21:59;11.80;99.90
40454;DHT22;26160;51.858;4.398;2023-03-31T10:24:26;11.80;99.90
40454;DHT22;26160;51.858;4.398;2023-03-31T10:27:01;11.60;99.90
40454;DHT22;26160;51.858;4.398;2023-03-31T10:29:32;11.50;99.90
40454;DHT22;26160;51.858;4.398;2023-03-31T10:32:13;11.40;99.90
40454;DHT22;26160;51.858;4.398;2023-03-31T10:34:42;11.40;99.90
40454;DHT22;26160;51.858;4.398;2023-03-31T10:37:13;11.50;99.90
40454;DHT22;26160;51.858;4.398;2023-03-31T10:39:42;11.50;99.90
40454;DHT22;26160;51.858;4.398;2023-03-31T10:42:08;11.50;99.90
40454;DHT22;26160;51.858;4.398;2023-03-31T10:44:37;11.60;99.90
40454;DHT22;26160;51.858;4.398;2023-03-31T10:49:40;11.70;99.90
40454;DHT22;26160;51.858;4.398;2023-03-31T10:52:17;11.70;99.90
40454;DHT22;26160;51.858;4.398;2023-03-31T10:54:55;11.80;99.90
40454;DHT22;26160;51.858;4.398;2023-03-31T10:57:39;11.80;99.90
40454;DHT22;26160;51.858;4.398;2023-03-31T11:05:28;11.70;99.90
40454;DHT22;26160;51.858;4.398;2023-03-31T11:11:05;11.60;99.90
40454;DHT22;26160;51.858;4.398;2023-03-31T11:14:11;11.60;99.90
40454;DHT22;26160;51.858;4.398;2023-03-31T11:30:51;11.90;99.90
40454;DHT22;26160;51.858;4.398;2023-03-31T11:33:29;11.90;99.90
40454;DHT22;26160;51.858;4.398;2023-03-31T11:38:49;11.70;99.90
40454;DHT22;26160;51.858;4.398;2023-03-31T11:41:27;11.60;99.90
40454;DHT22;26160;51.858;4.398;2023-03-31T11:44:01;11.60;99.90
40454;DHT22;26160;51.858;4.398;2023-03-31T11:49:31;11.70;99.90
40454;DHT22;26160;51.858;4.398;2023-03-31T11:52:21;11.70;99.90
40454;DHT22;26160;51.858;4.398;2023-03-31T11:55:18;11.60;99.90
40454;DHT22;26160;51.858;4.398;2023-03-31T11:58:10;11.60;99.90
40454;DHT22;26160;51.858;4.398;2023-03-31T12:00:45;11.50;99.90
40454;DHT22;26160;51.858;4.398;2023-03-31T12:03:14;11.50;99.90
40454;DHT22;26160;51.858;4.398;2023-03-31T12:05:46;11.50;99.90
40454;DHT22;26160;51.858;4.398;2023-03-31T12:08:18;11.50;99.90
40454;DHT22;26160;51.858;4.398;2023-03-31T12:11:13;11.60;99.90
40454;DHT22;26160;51.858;4.398;2023-03-31T12:22:06;11.70;99.90
40454;DHT22;26160;51.858;4.398;2023-03-31T12:24:35;11.50;99.90
40454;DHT22;26160;51.858;4.398;2023-03-31T12:29:58;11.40;99.90
40454;DHT22;26160;51.858;4.398;2023-03-31T12:32:29;11.70;99.90
40454;DHT22;26160;51.858;4.398;2023-03-31T12:40:31;12.10;99.90
40454;DHT22;26160;51.858;4.398;2023-03-31T12:45:34;12.20;99.90
40454;DHT22;26160;51.858;4.398;2023-03-31T12:56:00;12.10;99.90
40454;DHT22;26160;51.858;4.398;2023-03-31T13:01:07;11.90;99.90
40454;DHT22;26160;51.858;4.398;2023-03-31T13:06:02;11.60;99.90
40454;DHT22;26160;51.858;4.398;2023-03-31T13:08:51;11.50;99.90
40454;DHT22;26160;51.858;4.398;2023-03-31T13:11:41;11.50;99.90
40454;DHT22;26160;51.858;4.398;2023-03-31T13:14:27;11.40;99.90
40454;DHT22;26160;51.858;4.398;2023-03-31T13:17:30;11.40;99.90
40454;DHT22;26160;51.858;4.398;2023-03-31T13:20:27;11.40;99.90
40454;DHT22;26160;51.858;4.398;2023-03-31T13:25:44;11.40;99.90
40454;DHT22;26160;51.858;4.398;2023-03-31T13:28:38;11.30;99.90
40454;DHT22;26160;51.858;4.398;2023-03-31T13:31:10;11.30;99.90
40454;DHT22;26160;51.858;4.398;2023-03-31T13:36:12;11.20;99.90
40454;DHT22;26160;51.858;4.398;2023-03-31T13:38:51;11.20;99.90
40454;DHT22;26160;51.858;4.398;2023-03-31T13:52:04;11.30;99.90
40454;DHT22;26160;51.858;4.398;2023-03-31T14:00:23;11.30;99.90
40454;DHT22;26160;51.858;4.398;2023-03-31T14:11:23;11.40;99.90
40454;DHT22;26160;51.858;4.398;2023-03-31T14:14:15;11.40;99.90
40454;DHT22;26160;51.858;4.398;2023-03-31T14:16:51;11.30;99.90
40454;DHT22;26160;51.858;4.398;2023-03-31T14:19:23;11.30;99.90
40454;DHT22;26160;51.858;4.398;2023-03-31T14:25:15;11.20;99.90
40454;DHT22;26160;51.858;4.398;2023-03-31T14:28:25;11.20;99.90
40454;DHT22;26160;51.858;4.398;2023-03-31T14:36:59;11.20;99.90
40454;DHT22;26160;51.858;4.398;2023-03-31T14:39:42;11.30;99.90
40454;DHT22;26160;51.858;4.398;2023-03-31T14:42:12;11.30;99.90
40454;DHT22;26160;51.858;4.398;2023-03-31T14:44:40;11.40;99.90
40454;DHT22;26160;51.858;4.398;2023-03-31T14:47:19;11.40;99.90
40454;DHT22;26160;51.858;4.398;2023-03-31T14:49:58;11.30;99.90
40454;DHT22;26160;51.858;4.398;2023-03-31T14:52:29;11.30;99.90
40454;DHT22;26160;51.858;4.398;2023-03-31T14:54:57;11.20;99.90
40454;DHT22;26160;51.858;4.398;2023-03-31T14:57:30;11.20;99.90
40454;DHT22;26160;51.858;4.398;2023-03-31T14:59:58;11.10;99.90
40454;DHT22;26160;51.858;4.398;2023-03-31T15:02:34;11.20;99.90
40454;DHT22;26160;51.858;4.398;2023-03-31T15:05:03;11.20;99.90
40454;DHT22;26160;51.858;4.398;2023-03-31T15:07:31;11.20;99.90
40454;DHT22;26160;51.858;4.398;2023-03-31T15:09:58;11.30;99.90
40454;DHT22;26160;51.858;4.398;2023-03-31T15:12:25;11.30;99.90
40454;DHT22;26160;51.858;4.398;2023-03-31T15:15:04;11.20;99.90
40454;DHT22;26160;51.858;4.398;2023-03-31T15:17:37;11.30;99.90
40454;DHT22;26160;51.858;4.398;2023-03-31T15:20:39;11.30;99.90
40454;DHT22;26160;51.858;4.398;2023-03-31T15:23:19;11.30;99.90
40454;DHT22;26160;51.858;4.398;2023-03-31T15:25:58;11.20;99.90
40454;DHT22;26160;51.858;4.398;2023-03-31T15:28:30;11.20;99.90
40454;DHT22;26160;51.858;4.398;2023-03-31T15:30:59;11.20;99.90
40454;DHT22;26160;51.858;4.398;2023-03-31T15:33:31;11.10;99.90
40454;DHT22;26160;51.858;4.398;2023-03-31T15:35:58;11.10;99.90
40454;DHT22;26160;51.858;4.398;2023-03-31T15:38:26;11.10;99.90
40454;DHT22;26160;51.858;4.398;2023-03-31T15:40:55;11.10;99.90
40454;DHT22;26160;51.858;4.398;2023-03-31T15:43:30;11.00;99.90
40454;DHT22;26160;51.858;4.398;2023-03-31T15:45:58;10.90;99.90
40454;DHT22;26160;51.858;4.398;2023-03-31T15:48:29;10.90;99.90
40454;DHT22;26160;51.858;4.398;2023-03-31T15:51:22;11.00;99.90
40454;DHT22;26160;51.858;4.398;2023-03-31T15:53:54;10.90;99.90
40454;DHT22;26160;51.858;4.398;2023-03-31T15:59:01;10.90;99.90
40454;DHT22;26160;51.858;4.398;2023-03-31T16:01:37;10.90;99.90
40454;DHT22;26160;51.858;4.398;2023-03-31T16:04:08;10.80;99.90
40454;DHT22;26160;51.858;4.398;2023-03-31T16:06:44;10.80;99.90
40454;DHT22;26160;51.858;4.398;2023-03-31T16:11:50;10.80;99.90
40454;DHT22;26160;51.858;4.398;2023-03-31T16:14:42;10.80;99.90
40454;DHT22;26160;51.858;4.398;2023-03-31T16:17:13;10.80;99.90
40454;DHT22;26160;51.858;4.398;2023-03-31T16:19:48;10.80;99.90
40454;DHT22;26160;51.858;4.398;2023-03-31T16:22:19;10.80;99.90
40454;DHT22;26160;51.858;4.398;2023-03-31T16:24:46;10.80;99.90
40454;DHT22;26160;51.858;4.398;2023-03-31T16:27:13;10.80;99.90
40454;DHT22;26160;51.858;4.398;2023-03-31T16:29:39;10.90;99.90
40454;DHT22;26160;51.858;4.398;2023-03-31T16:35:00;10.80;99.90
40454;DHT22;26160;51.858;4.398;2023-03-31T16:37:26;10.80;99.90
40454;DHT22;26160;51.858;4.398;2023-03-31T16:39:52;10.80;99.90
40454;DHT22;26160;51.858;4.398;2023-03-31T16:42:19;10.80;99.90
40454;DHT22;26160;51.858;4.398;2023-03-31T16:44:45;10.80;99.90
40454;DHT22;26160;51.858;4.398;2023-03-31T16:47:12;10.80;99.90
40454;DHT22;26160;51.858;4.398;2023-03-31T16:49:39;10.70;99.90
40454;DHT22;26160;51.858;4.398;2023-03-31T16:52:05;10.70;99.90
40454;DHT22;26160;51.858;4.398;2023-03-31T16:54:33;10.70;99.90
40454;DHT22;26160;51.858;4.398;2023-03-31T16:56:59;10.70;99.90
40454;DHT22;26160;51.858;4.398;2023-03-31T16:59:26;10.70;99.90
40454;DHT22;26160;51.858;4.398;2023-03-31T17:01:52;10.70;99.90
40454;DHT22;26160;51.858;4.398;2023-03-31T17:04:18;10.70;99.90
40454;DHT22;26160;51.858;4.398;2023-03-31T17:06:45;10.70;99.90
40454;DHT22;26160;51.858;4.398;2023-03-31T17:09:12;10.70;99.90
40454;DHT22;26160;51.858;4.398;2023-03-31T17:11:41;10.80;99.90
40454;DHT22;26160;51.858;4.398;2023-03-31T17:14:07;10.70;99.90
40454;DHT22;26160;51.858;4.398;2023-03-31T17:16:35;10.70;99.90
40454;DHT22;26160;51.858;4.398;2023-03-31T17:19:01;10.70;99.90
40454;DHT22;26160;51.858;4.398;2023-03-31T17:21:29;10.60;99.90
40454;DHT22;26160;51.858;4.398;2023-03-31T17:23:56;10.60;99.90
40454;DHT22;26160;51.858;4.398;2023-03-31T17:26:23;10.60;99.90
40454;DHT22;26160;51.858;4.398;2023-03-31T17:28:49;10.60;99.90
40454;DHT22;26160;51.858;4.398;2023-03-31T17:31:18;10.60;99.90
40454;DHT22;26160;51.858;4.398;2023-03-31T17:33:45;10.50;99.90
40454;DHT22;26160;51.858;4.398;2023-03-31T17:36:11;10.50;99.90
40454;DHT22;26160;51.858;4.398;2023-03-31T17:38:38;10.50;99.90
40454;DHT22;26160;51.858;4.398;2023-03-31T17:41:05;10.50;99.90
40454;DHT22;26160;51.858;4.398;2023-03-31T17:43:32;10.50;99.90
40454;DHT22;26160;51.858;4.398;2023-03-31T17:46:07;10.50;99.90
40454;DHT22;26160;51.858;4.398;2023-03-31T17:48:34;10.50;99.90
40454;DHT22;26160;51.858;4.398;2023-03-31T17:51:06;10.50;99.90
40454;DHT22;26160;51.858;4.398;2023-03-31T17:53:33;10.50;99.90
40454;DHT22;26160;51.858;4.398;2023-03-31T17:56:01;10.50;99.90
40454;DHT22;26160;51.858;4.398;2023-03-31T17:58:27;10.50;99.90
40454;DHT22;26160;51.858;4.398;2023-03-31T18:00:53;10.50;99.90
40454;DHT22;26160;51.858;4.398;2023-03-31T18:03:19;10.50;99.90
40454;DHT22;26160;51.858;4.398;2023-03-31T18:05:45;10.40;99.90
40454;DHT22;26160;51.858;4.398;2023-03-31T18:08:11;10.50;99.90
40454;DHT22;26160;51.858;4.398;2023-03-31T18:10:38;10.50;99.90
40454;DHT22;26160;51.858;4.398;2023-03-31T18:13:05;10.40;99.90
40454;DHT22;26160;51.858;4.398;2023-03-31T18:15:31;10.40;99.90
40454;DHT22;26160;51.858;4.398;2023-03-31T18:17:57;10.40;99.90
40454;DHT22;26160;51.858;4.398;2023-03-31T18:20:23;10.40;99.90
40454;DHT22;26160;51.858;4.398;2023-03-31T18:22:50;10.40;99.90
40454;DHT22;26160;51.858;4.398;2023-03-31T18:25:16;10.40;99.90
40454;DHT22;26160;51.858;4.398;2023-03-31T18:27:42;10.40;99.90
40454;DHT22;26160;51.858;4.398;2023-03-31T18:30:08;10.40;99.90
40454;DHT22;26160;51.858;4.398;2023-03-31T18:32:35;10.40;99.90
40454;DHT22;26160;51.858;4.398;2023-03-31T18:35:01;10.30;99.90
40454;DHT22;26160;51.858;4.398;2023-03-31T18:37:27;10.40;99.90
40454;DHT22;26160;51.858;4.398;2023-03-31T18:39:54;10.30;99.90
40454;DHT22;26160;51.858;4.398;2023-03-31T18:42:20;10.30;99.90
40454;DHT22;26160;51.858;4.398;2023-03-31T18:44:53;10.30;99.90
40454;DHT22;26160;51.858;4.398;2023-03-31T18:47:19;10.30;99.90
40454;DHT22;26160;51.858;4.398;2023-03-31T18:49:46;10.40;99.90
40454;DHT22;26160;51.858;4.398;2023-03-31T18:52:13;10.40;99.90
40454;DHT22;26160;51.858;4.398;2023-03-31T18:54:40;10.40;99.90